Time;durP1;ratioP1;P1;durP2;ratioP2;P2;SDS_P1;SDS_P2;PMS_P1;PMS_P2;Temp;Humidity;BMP_temperature;BMP_pressure;BME280_temperature;BME280_humidity;BME280_pressure;Samples;Min_cycle;Max_cycle;Signal;HPM_P1;HPM_P2
2023/10/07 00:02:47;;;;;;;10.73;3.63;;;;;;;15.02;100.00;101169.28;6025331;28;20049;-65
2023/10/07 00:05:44;;;;;;;9.83;3.70;;;;;;;15.18;100.00;101180.00;6024804;28;20038;-65
2023/10/07 00:08:40;;;;;;;8.45;3.50;;;;;;;15.12;100.00;101169.09;6023751;28;20498;-65
2023/10/07 00:11:35;;;;;;;9.70;3.20;;;;;;;15.19;100.00;101170.94;6025640;28;20038;-64
2023/10/07 00:14:31;;;;;;;6.85;3.15;;;;;;;15.27;100.00;101175.50;6025304;28;20054;-65
2023/10/07 00:17:28;;;;;;;8.07;3.10;;;;;;;15.23;100.00;101164.28;6024556;28;20402;-65
2023/10/07 00:20:24;;;;;;;10.93;3.42;;;;;;;15.29;100.00;101163.63;6027385;28;20788;-65
2023/10/07 00:23:22;;;;;;;12.15;3.83;;;;;;;15.34;100.00;101177.34;6029706;28;20034;-65
2023/10/07 00:26:17;;;;;;;7.80;3.13;;;;;;;15.25;100.00;101164.13;6029703;28;20031;-65
2023/10/07 00:29:13;;;;;;;10.10;3.27;;;;;;;15.20;100.00;101158.44;6029211;28;20385;-65
2023/10/07 00:32:10;;;;;;;8.97;3.17;;;;;;;15.18;100.00;101163.13;6028844;28;20042;-65
2023/10/07 00:35:07;;;;;;;9.73;3.03;;;;;;;15.19;100.00;101165.59;6029691;28;20394;-66
2023/10/07 00:38:02;;;;;;;12.05;3.20;;;;;;;15.10;100.00;101163.94;6028452;28;20037;-65
2023/10/07 00:40:57;;;;;;;9.60;3.25;;;;;;;15.19;100.00;101178.97;6020953;28;20383;-65
2023/10/07 00:43:58;;;;;;;10.33;4.07;;;;;;;15.13;100.00;101160.94;6029037;28;20036;-65
2023/10/07 00:50:00;;;;;;;10.43;3.83;;;;;;;15.18;100.00;101163.97;6035943;28;20108;-65
2023/10/07 00:52:57;;;;;;;11.80;3.72;;;;;;;15.20;100.00;101153.94;6028980;28;20401;-65
2023/10/07 00:55:52;;;;;;;11.40;5.38;;;;;;;15.25;100.00;101175.66;6023589;28;20080;-66
2023/10/07 00:58:49;;;;;;;10.40;3.53;;;;;;;15.28;100.00;101172.66;6027332;28;20026;-65
2023/10/07 01:01:47;;;;;;;11.00;3.60;;;;;;;15.21;100.00;101162.78;6027126;28;20405;-64
2023/10/07 01:04:42;;;;;;;9.00;3.50;;;;;;;15.20;100.00;101172.63;6027661;28;20039;-65
2023/10/07 01:07:38;;;;;;;11.02;3.20;;;;;;;15.27;100.00;101184.31;6021206;28;20108;-65
2023/10/07 01:10:38;;;;;;;12.83;3.77;;;;;;;15.28;100.00;101177.16;6027588;28;20508;-65
2023/10/07 01:13:35;;;;;;;8.77;3.28;;;;;;;15.28;100.00;101175.31;6028378;28;20030;-65
2023/10/07 01:19:52;;;;;;;6.97;3.20;;;;;;;15.30;100.00;101165.28;6028078;28;20104;-65
2023/10/07 01:23:02;;;;;;;11.55;3.70;;;;;;;15.25;100.00;101164.13;6028333;28;20050;-65
2023/10/07 01:25:59;;;;;;;9.20;3.22;;;;;;;15.27;100.00;101165.63;6028072;28;20026;-66
2023/10/07 01:28:56;;;;;;;11.43;3.30;;;;;;;15.24;100.00;101147.28;6027841;28;20037;-65
2023/10/07 01:32:03;;;;;;;8.35;3.55;;;;;;;15.24;100.00;101147.28;6028004;28;20065;-65
2023/10/07 01:35:05;;;;;;;8.68;3.42;;;;;;;15.35;100.00;101154.97;6017609;28;20038;-65
2023/10/07 01:38:06;;;;;;;7.80;3.45;;;;;;;15.22;100.00;101122.53;6027216;28;20049;-65
2023/10/07 01:41:05;;;;;;;11.70;5.18;;;;;;;15.36;100.00;101151.28;6028092;28;20070;-66
2023/10/07 01:44:04;;;;;;;12.85;3.72;;;;;;;15.36;100.00;101153.94;6027906;28;20525;-64
2023/10/07 01:47:00;;;;;;;9.32;3.58;;;;;;;15.28;100.00;101137.91;6027572;28;20153;-65
2023/10/07 01:49:56;;;;;;;12.60;3.80;;;;;;;15.33;100.00;101142.75;6034777;28;20038;-65
2023/10/07 01:52:55;;;;;;;11.95;4.10;;;;;;;15.34;100.00;101150.63;6027352;28;20037;-65
2023/10/07 01:55:51;;;;;;;9.07;3.67;;;;;;;15.28;100.00;101145.91;6027175;28;20501;-66
2023/10/07 01:58:47;;;;;;;7.40;3.28;;;;;;;15.38;100.00;101149.25;6027287;28;20034;-66
2023/10/07 02:01:43;;;;;;;9.05;3.80;;;;;;;15.30;100.00;101138.56;6027721;28;20097;-65
2023/10/07 02:04:39;;;;;;;10.60;3.95;;;;;;;15.34;100.00;101134.56;6027293;28;20105;-65
2023/10/07 02:07:36;;;;;;;16.47;4.10;;;;;;;15.30;100.00;101133.22;6026811;28;20034;-66
2023/10/07 02:10:32;;;;;;;8.25;3.65;;;;;;;15.38;100.00;101143.09;6026412;28;20026;-65
2023/10/07 02:13:28;;;;;;;10.10;3.72;;;;;;;15.36;100.00;101134.41;6027300;28;20031;-65
2023/10/07 02:16:25;;;;;;;7.17;3.67;;;;;;;15.29;100.00;101138.75;6027278;28;20026;-66
2023/10/07 02:19:29;;;;;;;8.63;4.28;;;;;;;15.34;100.00;101136.41;6026478;28;20034;-65
2023/10/07 02:22:28;;;;;;;10.45;3.92;;;;;;;15.39;100.00;101144.75;6026932;28;20042;-65
2023/10/07 02:25:26;;;;;;;7.30;3.45;;;;;;;15.36;100.00;101143.25;6026769;28;20481;-65
2023/10/07 02:28:22;;;;;;;11.95;4.07;;;;;;;15.27;100.00;101130.88;6021861;28;20038;-65
2023/10/07 02:31:22;;;;;;;9.93;3.90;;;;;;;15.25;100.00;101132.91;6025877;28;20162;-65
2023/10/07 02:34:29;;;;;;;;;;;;;;;15.36;100.00;101150.44;6026866;28;20390;-65
2023/10/07 02:37:30;;;;;;;9.32;4.30;;;;;;;15.29;100.00;101126.22;6026325;28;20000;-65
2023/10/07 02:40:35;;;;;;;11.80;3.97;;;;;;;15.36;100.00;101147.75;6022318;28;20153;-65
2023/10/07 02:43:34;;;;;;;9.63;4.00;;;;;;;15.36;100.00;101142.41;6010196;28;20034;-66
2023/10/07 02:46:32;;;;;;;9.90;4.22;;;;;;;15.34;100.00;101139.09;6024444;28;20039;-65
2023/10/07 02:49:27;;;;;;;10.20;3.72;;;;;;;15.33;100.00;101130.22;6033684;28;20084;-65
2023/10/07 02:52:24;;;;;;;11.60;3.63;;;;;;;15.43;100.00;101146.13;6018688;28;20035;-65
2023/10/07 02:58:24;;;;;;;10.03;3.80;;;;;;;15.40;100.00;101131.25;6023711;28;20064;-66
2023/10/07 03:01:25;;;;;;;9.88;4.22;;;;;;;15.34;100.00;101115.88;6025463;28;20534;-66
2023/10/07 03:04:22;;;;;;;7.57;3.67;;;;;;;15.41;100.00;101124.03;6025342;28;20027;-65
2023/10/07 03:07:17;;;;;;;9.55;3.72;;;;;;;15.40;100.00;101123.22;6026112;28;20034;-63
2023/10/07 03:10:19;;;;;;;10.03;3.67;;;;;;;15.35;100.00;101112.22;6019732;28;20084;-62
2023/10/07 03:13:16;;;;;;;8.90;4.00;;;;;;;15.39;100.00;101110.84;6026183;28;20477;-63
2023/10/07 03:19:22;;;;;;;9.95;3.30;;;;;;;15.32;100.00;101091.16;6025898;28;20031;-65
2023/10/07 03:22:18;;;;;;;7.38;3.55;;;;;;;15.43;100.00;101122.91;6025913;28;20482;-65
2023/10/07 03:25:17;;;;;;;11.95;4.30;;;;;;;15.42;100.00;101123.03;6022304;28;20088;-65
2023/10/07 03:28:16;;;;;;;14.00;4.13;;;;;;;15.32;100.00;101093.00;6025322;28;20030;-65
2023/10/07 03:31:12;;;;;;;8.25;3.47;;;;;;;15.41;100.00;101108.84;6025688;28;20035;-65
2023/10/07 03:34:09;;;;;;;9.57;3.88;;;;;;;15.41;100.00;101105.31;6025857;28;20050;-65
2023/10/07 03:43:34;;;;;;;8.77;3.30;;;;;;;15.35;100.00;101084.66;6024169;28;20666;-65
2023/10/07 03:46:30;;;;;;;15.90;4.35;;;;;;;15.41;100.00;101098.16;6025588;28;20393;-65
2023/10/07 03:49:33;;;;;;;13.35;4.43;;;;;;;15.40;100.00;101104.53;6025121;28;20038;-65
2023/10/07 03:52:28;;;;;;;11.10;3.80;;;;;;;15.34;100.00;101104.34;6018591;28;20081;-65
2023/10/07 03:55:24;;;;;;;8.63;4.27;;;;;;;15.38;100.00;101101.16;6023935;28;20034;-65
2023/10/07 03:58:20;;;;;;;13.07;4.37;;;;;;;15.32;100.00;101093.84;6028788;28;20037;-65
2023/10/07 04:01:18;;;;;;;11.15;4.40;;;;;;;15.18;100.00;101115.03;6029816;28;20046;-65
2023/10/07 04:04:13;;;;;;;12.70;4.50;;;;;;;14.80;100.00;101105.78;6030094;28;20046;-65
2023/10/07 04:07:10;;;;;;;9.83;5.03;;;;;;;14.53;100.00;101103.38;6030153;28;20415;-64
2023/10/07 04:10:36;;;;;;;13.52;5.72;;;;;;;14.44;100.00;101109.66;6021471;28;20761;-65
2023/10/07 04:13:32;;;;;;;10.38;4.97;;;;;;;14.31;100.00;101083.41;6030120;28;20022;-64
2023/10/07 04:16:27;;;;;;;11.80;5.47;;;;;;;14.35;100.00;101094.66;6029648;28;20073;-65
2023/10/07 04:22:18;;;;;;;16.40;6.33;;;;;;;14.24;100.00;101098.41;6029654;28;20049;-65
2023/10/07 04:25:17;;;;;;;27.50;7.13;;;;;;;14.12;100.00;101092.50;6029013;28;20393;-65
2023/10/07 04:28:15;;;;;;;14.93;6.38;;;;;;;14.16;100.00;101099.19;6029040;28;20526;-64
2023/10/07 04:31:11;;;;;;;12.25;5.70;;;;;;;14.22;100.00;101103.88;6029692;28;20489;-65
2023/10/07 04:34:14;;;;;;;12.82;6.15;;;;;;;14.18;100.00;101113.22;6029421;28;20030;-65
2023/10/07 04:37:13;;;;;;;12.18;6.35;;;;;;;14.09;100.00;101100.00;6029356;28;20470;-66
2023/10/07 04:46:23;;;;;;;15.97;7.47;;;;;;;13.68;100.00;101098.91;6029018;28;20022;-66
2023/10/07 04:49:18;;;;;;;21.27;8.95;;;;;;;13.63;100.00;101086.06;6022705;28;20030;-66
2023/10/07 04:52:19;;;;;;;17.25;9.13;;;;;;;13.58;100.00;101085.72;6029020;28;20085;-66
2023/10/07 04:55:15;;;;;;;19.13;9.25;;;;;;;13.57;100.00;101099.16;6019088;28;20140;-66
2023/10/07 04:58:12;;;;;;;18.52;9.90;;;;;;;13.54;100.00;101099.47;6025317;28;20034;-66
2023/10/07 05:04:24;;;;;;;24.20;10.48;;;;;;;13.42;100.00;101106.06;6028429;28;20445;-66
2023/10/07 05:07:26;;;;;;;21.75;10.15;;;;;;;13.36;100.00;101104.00;6026419;28;20039;-66
2023/10/07 05:10:24;;;;;;;21.60;10.70;;;;;;;13.43;100.00;101121.03;6016563;28;20158;-65
2023/10/07 05:13:19;;;;;;;19.70;11.20;;;;;;;13.33;100.00;101104.31;6028489;28;20088;-65
2023/10/07 05:16:16;;;;;;;23.67;10.80;;;;;;;13.41;100.00;101115.88;6028057;28;20042;-65
2023/10/07 05:19:19;;;;;;;23.17;10.90;;;;;;;13.33;100.00;101096.31;6027936;28;20502;-65
2023/10/07 05:22:15;;;;;;;23.52;12.95;;;;;;;13.43;100.00;101100.56;6028789;28;20193;-65
2023/10/07 05:25:10;;;;;;;23.77;12.13;;;;;;;13.45;100.00;101106.56;6027908;28;20026;-65
2023/10/07 05:28:10;;;;;;;28.13;12.33;;;;;;;13.44;100.00;101109.41;6028027;28;20026;-66
2023/10/07 05:31:05;;;;;;;21.42;11.43;;;;;;;13.47;100.00;101109.09;6028130;28;20034;-66
2023/10/07 05:34:02;;;;;;;27.08;13.32;;;;;;;13.45;100.00;101100.44;6028058;28;20158;-65
2023/10/07 05:37:01;;;;;;;24.20;11.30;;;;;;;13.53;100.00;101098.63;6028071;28;20046;-66
2023/10/07 05:39:56;;;;;;;21.08;11.77;;;;;;;13.50;100.00;101082.16;6026902;28;20041;-65
2023/10/07 05:42:52;;;;;;;20.80;11.53;;;;;;;13.66;100.00;101098.25;6027981;28;20030;-65
2023/10/07 05:45:47;;;;;;;23.70;12.20;;;;;;;13.66;100.00;101093.75;6020061;28;20544;-65
2023/10/07 05:48:43;;;;;;;27.23;13.65;;;;;;;13.66;100.00;101082.25;6028320;28;20073;-65
2023/10/07 05:51:39;;;;;;;25.33;12.80;;;;;;;13.78;100.00;101104.97;6028074;28;20030;-65
2023/10/07 05:54:35;;;;;;;23.20;11.70;;;;;;;13.75;100.00;101086.66;6027926;28;20038;-65
2023/10/07 05:57:30;;;;;;;22.88;11.43;;;;;;;13.84;100.00;101095.50;6028522;28;20039;-65
2023/10/07 06:00:25;;;;;;;24.33;13.05;;;;;;;13.90;100.00;101103.72;6027517;28;20394;-65
2023/10/07 06:03:21;;;;;;;22.25;11.77;;;;;;;13.94;100.00;101102.41;6026157;28;20117;-65
2023/10/07 06:06:16;;;;;;;25.53;12.27;;;;;;;13.98;100.00;101097.59;6027578;28;20486;-65
2023/10/07 06:09:14;;;;;;;28.25;12.88;;;;;;;13.97;100.00;101086.09;6026803;28;20038;-64
2023/10/07 06:12:11;;;;;;;18.95;12.20;;;;;;;14.05;100.00;101096.78;6027612;28;20537;-65
2023/10/07 06:15:08;;;;;;;22.25;12.25;;;;;;;14.11;100.00;101098.00;6026906;28;20026;-64
2023/10/07 06:18:04;;;;;;;27.02;12.65;;;;;;;14.08;100.00;101098.31;6025776;28;20440;-65
2023/10/07 06:21:33;;;;;;;23.05;11.50;;;;;;;14.07;100.00;101094.81;6027190;28;20061;-65
2023/10/07 06:24:23;;;;;;;21.83;12.00;;;;;;;14.22;100.00;101106.56;6032901;28;20046;-65
2023/10/07 06:27:21;;;;;;;24.25;12.30;;;;;;;14.26;100.00;101105.25;6024330;28;20045;-66
2023/10/07 06:30:21;;;;;;;27.27;13.38;;;;;;;14.26;100.00;101112.41;6026092;28;20469;-65
2023/10/07 06:33:16;;;;;;;24.13;12.35;;;;;;;14.27;100.00;101124.75;6026418;28;20118;-65
2023/10/07 06:36:14;;;;;;;22.80;12.83;;;;;;;14.25;100.00;101108.91;6026101;28;20393;-66
2023/10/07 06:39:19;;;;;;;20.38;12.45;;;;;;;14.30;100.00;101119.94;6118166;28;20899;-64
2023/10/07 06:42:14;;;;;;;26.15;13.30;;;;;;;14.25;100.00;101097.41;6097427;28;20116;-64
2023/10/07 06:45:17;;;;;;;23.33;12.43;;;;;;;14.36;100.00;101125.66;6102040;28;20033;-64
2023/10/07 06:48:13;;;;;;;27.92;12.57;;;;;;;14.30;100.00;101108.41;6093054;28;20037;-64
2023/10/07 06:51:11;;;;;;;25.03;13.37;;;;;;;14.30;100.00;101103.91;6093611;28;20037;-64
2023/10/07 06:54:07;;;;;;;23.52;13.45;;;;;;;14.40;100.00;101113.69;6096649;28;20615;-64
2023/10/07 06:57:08;;;;;;;29.08;13.82;;;;;;;14.41;100.00;101105.50;6096479;28;20117;-63
2023/10/07 07:00:11;;;;;;;29.08;14.07;;;;;;;14.45;100.00;101111.34;6093282;28;20033;-63
2023/10/07 07:03:10;;;;;;;29.23;14.18;;;;;;;14.45;100.00;101109.53;6088173;28;20039;-63
2023/10/07 07:06:16;;;;;;;23.85;14.05;;;;;;;14.44;100.00;101113.19;6089809;28;20048;-64
2023/10/07 07:12:27;;;;;;;27.67;13.63;;;;;;;14.61;100.00;101109.59;6091338;28;20033;-66
2023/10/07 07:15:28;;;;;;;28.50;13.90;;;;;;;14.64;100.00;101133.28;6089562;28;20068;-64
2023/10/07 07:18:26;;;;;;;31.92;14.75;;;;;;;14.64;100.00;101127.94;6089805;28;20034;-64
2023/10/07 07:24:29;;;;;;;33.22;13.75;;;;;;;14.64;100.00;101114.59;6096789;28;20075;-64
2023/10/07 07:27:25;;;;;;;31.38;14.90;;;;;;;14.70;100.00;101134.47;6099258;28;20086;-64
2023/10/07 07:30:29;;;;;;;32.30;14.30;;;;;;;14.69;100.00;101124.78;6091011;28;20036;-64
2023/10/07 07:33:29;;;;;;;27.65;14.98;;;;;;;14.74;100.00;101141.97;6091072;28;20469;-65
2023/10/07 07:36:42;;;;;;;34.63;15.07;;;;;;;14.73;100.00;101150.16;6088083;28;20679;-65
2023/10/07 07:39:37;;;;;;;;;;;;;;;14.78;100.00;101147.84;6082589;28;20032;-64
2023/10/07 07:42:34;;;;;;;31.60;15.20;;;;;;;14.82;100.00;101165.19;6085055;28;19916;-64
2023/10/07 07:45:29;;;;;;;34.00;15.55;;;;;;;14.76;100.00;101139.13;6106637;28;20025;-64
2023/10/07 07:48:25;;;;;;;29.85;13.65;;;;;;;14.79;100.00;101142.31;6096915;28;20389;-64
2023/10/07 07:51:43;;;;;;;30.23;14.80;;;;;;;14.79;100.00;101138.81;6074583;28;20035;-64
2023/10/07 07:54:39;;;;;;;29.75;14.32;;;;;;;14.83;100.00;101153.53;6067301;28;20041;-65
2023/10/07 07:57:35;;;;;;;28.60;13.93;;;;;;;14.85;100.00;101146.19;6073908;28;20040;-65
2023/10/07 08:00:31;;;;;;;32.53;14.82;;;;;;;14.90;100.00;101134.00;6062083;28;20088;-65
2023/10/07 08:03:26;;;;;;;32.22;15.18;;;;;;;14.95;100.00;101135.38;6057743;28;20038;-65
2023/10/07 08:06:25;;;;;;;29.00;15.07;;;;;;;14.97;100.00;101128.88;6053069;28;20033;-65
2023/10/07 08:09:24;;;;;;;36.58;16.00;;;;;;;14.94;100.00;101123.84;6056963;28;20389;-65
2023/10/07 08:12:31;;;;;;;32.40;15.65;;;;;;;14.96;100.00;101113.81;6085889;28;20082;-65
2023/10/07 08:15:38;;;;;;;34.97;14.52;;;;;;;15.02;100.00;101115.00;6076478;28;20079;-65
2023/10/07 08:18:34;;;;;;;33.05;15.25;;;;;;;15.05;100.00;101134.22;6073773;28;20519;-66
2023/10/07 08:21:29;;;;;;;31.75;14.43;;;;;;;15.09;100.00;101145.38;6078013;28;20029;-64
2023/10/07 08:24:31;;;;;;;31.55;15.38;;;;;;;15.02;100.00;101141.72;6076098;28;20041;-66
2023/10/07 08:27:44;;;;;;;31.55;14.70;;;;;;;15.09;100.00;101148.06;6085768;28;20242;-64
2023/10/07 08:30:46;;;;;;;31.60;15.23;;;;;;;15.14;100.00;101146.56;6072973;28;20514;-65
2023/10/07 08:33:41;;;;;;;33.58;14.52;;;;;;;15.13;100.00;101144.06;6079892;28;20392;-66
2023/10/07 08:36:38;;;;;;;30.70;15.17;;;;;;;15.24;100.00;101155.28;6072978;28;20033;-65
2023/10/07 08:39:44;;;;;;;39.33;16.23;;;;;;;15.28;100.00;101148.59;6078090;28;20124;-65
2023/10/07 08:42:44;;;;;;;30.83;15.32;;;;;;;15.27;100.00;101140.75;6074442;28;20518;-66
2023/10/07 08:45:40;;;;;;;36.25;15.75;;;;;;;15.32;100.00;101152.63;6080647;28;20116;-65
2023/10/07 08:48:38;;;;;;;35.53;15.25;;;;;;;15.31;100.00;101145.59;6072950;28;20040;-65
2023/10/07 08:51:41;;;;;;;30.75;15.02;;;;;;;15.23;100.00;101129.56;6072651;28;20396;-65
2023/10/07 08:54:44;;;;;;;32.35;15.43;;;;;;;15.26;100.00;101126.56;6073263;28;20096;-65
2023/10/07 08:57:40;;;;;;;32.95;14.77;;;;;;;15.30;100.00;101138.56;6079896;28;20508;-64
2023/10/07 09:00:45;;;;;;;40.45;17.15;;;;;;;15.31;100.00;101134.91;6071860;28;20603;-65
2023/10/07 09:03:41;;;;;;;31.73;14.30;;;;;;;15.24;100.00;101123.22;6077558;28;20064;-65
2023/10/07 09:06:45;;;;;;;32.55;15.05;;;;;;;15.31;100.00;101115.34;6077516;28;20040;-65
2023/10/07 09:09:43;;;;;;;37.53;15.40;;;;;;;15.36;100.00;101110.34;6072541;28;20041;-65
2023/10/07 09:12:45;;;;;;;31.85;14.30;;;;;;;15.37;100.00;101104.84;6072633;28;20674;-65
2023/10/07 09:15:42;;;;;;;31.77;14.52;;;;;;;15.42;100.00;101099.84;6073090;28;20060;-65
2023/10/07 09:18:40;;;;;;;32.22;14.75;;;;;;;15.49;100.00;101098.19;6072638;28;20061;-65
2023/10/07 09:21:36;;;;;;;27.70;13.73;;;;;;;15.68;100.00;101098.84;6073410;28;20120;-65
2023/10/07 09:24:32;;;;;;;28.17;13.55;;;;;;;15.80;100.00;101101.00;6078702;28;20033;-65
2023/10/07 09:27:36;;;;;;;27.63;12.87;;;;;;;15.96;100.00;101094.75;6069593;28;20439;-65
2023/10/07 09:30:35;;;;;;;27.05;13.05;;;;;;;15.95;100.00;101093.09;6073633;28;20056;-65
2023/10/07 09:33:35;;;;;;;27.60;13.40;;;;;;;15.99;100.00;101099.75;6071732;28;20036;-65
2023/10/07 09:39:34;;;;;;;38.67;13.98;;;;;;;16.01;100.00;101087.03;6068754;28;20048;-65
2023/10/07 09:42:36;;;;;;;31.83;14.52;;;;;;;16.15;100.00;101099.72;6073122;28;20087;-65
2023/10/07 09:45:34;;;;;;;30.50;13.75;;;;;;;16.25;100.00;101096.84;6069157;28;20029;-64
2023/10/07 09:48:33;;;;;;;32.70;15.07;;;;;;;16.31;100.00;101080.91;6072145;28;20037;-64
2023/10/07 09:51:29;;;;;;;25.42;12.73;;;;;;;16.47;100.00;101077.34;6069370;28;20033;-65
2023/10/07 09:54:47;;;;;;;23.40;12.20;;;;;;;16.46;100.00;101068.47;6069863;28;20113;-64
2023/10/07 09:57:55;;;;;;;30.35;11.48;;;;;;;16.59;100.00;101087.50;6071954;28;20276;-65
2023/10/07 10:01:28;;;;;;;28.52;12.55;;;;;;;16.56;100.00;101081.66;6071652;28;20041;-65
2023/10/07 10:04:36;;;;;;;24.98;11.57;;;;;;;16.64;100.00;101085.13;6067330;28;20041;-65
2023/10/07 10:08:08;;;;;;;25.15;11.35;;;;;;;16.71;100.00;101079.91;6072083;28;20112;-65
2023/10/07 10:11:19;;;;;;;20.05;11.30;;;;;;;16.76;100.00;101080.22;6065355;28;20514;-65
2023/10/07 10:17:18;;;;;;;24.33;11.07;;;;;;;16.74;100.00;101068.03;6071541;28;20033;-66
2023/10/07 10:20:18;;;;;;;23.52;11.18;;;;;;;16.86;100.00;101058.53;6071556;28;20484;-65
2023/10/07 10:23:19;;;;;;;28.15;12.60;;;;;;;16.98;100.00;101083.94;6071455;28;20376;-65
2023/10/07 10:26:21;;;;;;;20.98;11.30;;;;;;;17.08;100.00;101071.13;6071430;28;20029;-65
2023/10/07 10:29:25;;;;;;;25.85;11.77;;;;;;;17.14;100.00;101075.75;6071105;28;21045;-65
2023/10/07 10:32:33;;;;;;;24.80;10.90;;;;;;;17.27;100.00;101079.50;6071646;28;20030;-65
2023/10/07 10:35:32;;;;;;;22.40;11.30;;;;;;;17.32;100.00;101089.69;6068564;28;20133;-65
2023/10/07 10:38:38;;;;;;;21.45;10.60;;;;;;;17.23;100.00;101069.31;6071044;28;20037;-65
2023/10/07 10:41:33;;;;;;;27.92;11.25;;;;;;;17.23;100.00;101090.75;6071179;28;20029;-65
2023/10/07 10:44:36;;;;;;;21.30;10.38;;;;;;;17.18;100.00;101083.25;6072238;28;20400;-65
2023/10/07 10:47:33;;;;;;;22.90;10.80;;;;;;;17.19;100.00;101110.91;6071166;28;20033;-64
2023/10/07 10:50:32;;;;;;;22.73;11.50;;;;;;;17.11;100.00;101098.41;6069754;28;20059;-65
2023/10/07 10:53:29;;;;;;;27.33;11.05;;;;;;;17.25;100.00;101110.19;6070334;28;20143;-65
2023/10/07 10:56:26;;;;;;;23.95;10.85;;;;;;;17.28;100.00;101097.25;6070073;28;20025;-65
2023/10/07 10:59:35;;;;;;;25.98;11.55;;;;;;;17.30;100.00;101107.78;6066715;28;20489;-65
2023/10/07 11:02:39;;;;;;;24.05;11.30;;;;;;;17.07;100.00;101104.28;6071557;28;20535;-65
2023/10/07 11:05:34;;;;;;;25.23;11.98;;;;;;;17.00;100.00;101106.84;6071136;28;20457;-65
2023/10/07 11:08:30;;;;;;;23.70;10.93;;;;;;;16.86;100.00;101096.88;6073299;28;20028;-65
2023/10/07 11:11:29;;;;;;;25.35;11.90;;;;;;;16.85;100.00;101087.16;6071881;28;20045;-65
2023/10/07 11:14:26;;;;;;;25.55;11.07;;;;;;;16.96;100.00;101099.34;6065661;28;20472;-65
2023/10/07 11:17:22;;;;;;;19.80;11.18;;;;;;;17.01;100.00;101084.38;6070453;28;20102;-65
2023/10/07 11:20:19;;;;;;;22.42;11.20;;;;;;;17.17;100.00;101086.97;6070502;28;20779;-65
2023/10/07 11:23:15;;;;;;;28.13;11.52;;;;;;;17.23;100.00;101086.22;6071002;28;20030;-65
2023/10/07 11:26:11;;;;;;;21.75;10.90;;;;;;;17.33;100.00;101085.16;6075246;28;20493;-66
2023/10/07 11:29:13;;;;;;;22.65;10.05;;;;;;;17.45;100.00;101089.91;6074711;28;20034;-65
2023/10/07 11:32:08;;;;;;;23.40;11.07;;;;;;;17.59;100.00;101102.53;6073785;28;20041;-66
2023/10/07 11:35:05;;;;;;;22.00;10.70;;;;;;;17.67;100.00;101083.69;6075500;28;20029;-66
2023/10/07 11:38:02;;;;;;;22.98;10.07;;;;;;;17.83;100.00;101094.25;6074765;28;20079;-66
2023/10/07 11:40:59;;;;;;;23.92;9.63;;;;;;;17.90;100.00;101089.00;6075255;28;20064;-65
2023/10/07 11:43:54;;;;;;;21.10;9.82;;;;;;;17.91;100.00;101087.16;6072625;28;20056;-65
2023/10/07 11:46:50;;;;;;;21.07;10.27;;;;;;;17.82;100.00;101065.78;6075458;28;20465;-65
2023/10/07 11:49:46;;;;;;;16.92;8.88;;;;;;;17.85;100.00;101086.03;6074503;28;20029;-65
2023/10/07 11:52:42;;;;;;;17.15;9.02;;;;;;;17.79;100.00;101060.78;6074804;28;20108;-65
2023/10/07 11:55:38;;;;;;;17.00;9.05;;;;;;;17.89;100.00;101070.38;6074954;28;20025;-65
2023/10/07 11:58:33;;;;;;;18.37;9.13;;;;;;;17.89;100.00;101065.00;6073909;28;20114;-65
2023/10/07 12:01:29;;;;;;;20.97;9.90;;;;;;;17.93;100.00;101085.09;6078259;28;20260;-65
2023/10/07 12:04:26;;;;;;;17.10;8.15;;;;;;;17.99;100.00;101074.44;6070143;28;20048;-65
2023/10/07 12:07:21;;;;;;;16.42;8.65;;;;;;;18.08;100.00;101065.28;6074220;28;20030;-65
2023/10/07 12:10:17;;;;;;;14.57;8.20;;;;;;;18.22;100.00;101055.56;6074371;28;20715;-65
2023/10/07 12:13:14;;;;;;;13.98;8.15;;;;;;;18.42;100.00;101078.13;6074598;28;20480;-66
2023/10/07 12:16:10;;;;;;;15.05;7.60;;;;;;;18.42;100.00;101073.59;6074211;28;20048;-65
2023/10/07 12:19:06;;;;;;;12.48;7.45;;;;;;;18.36;100.00;101052.03;6073853;28;20057;-65
2023/10/07 12:22:03;;;;;;;14.40;7.73;;;;;;;18.57;100.00;101070.91;6074112;28;20052;-65
2023/10/07 12:25:00;;;;;;;16.67;7.50;;;;;;;18.51;100.00;101071.63;6074581;28;20480;-65
2023/10/07 12:27:56;;;;;;;12.27;6.47;;;;;;;18.60;100.00;101073.22;6074159;28;20034;-66
2023/10/07 12:30:52;;;;;;;15.15;7.85;;;;;;;18.44;100.00;101070.72;6073629;28;20530;-65
2023/10/07 12:33:47;;;;;;;13.68;6.78;;;;;;;18.50;100.00;101080.75;6074027;28;20098;-65
2023/10/07 12:36:42;;;;;;;11.20;6.47;;;;;;;18.41;100.00;101088.03;6073496;28;20500;-65
2023/10/07 12:39:39;;;;;;;13.98;6.82;;;;;;;18.32;100.00;101083.78;6073245;28;20041;-65
2023/10/07 12:42:35;;;;;;;11.45;6.43;;;;;;;18.32;100.00;101082.94;6073937;28;20041;-65
2023/10/07 12:45:31;;;;;;;10.18;5.90;;;;;;;18.28;100.00;101070.94;6077105;28;20030;-65
2023/10/07 12:48:26;;;;;;;10.17;6.20;;;;;;;18.29;100.00;101072.59;6073554;28;20032;-65
2023/10/07 12:51:23;;;;;;;12.55;6.55;;;;;;;18.38;100.00;101076.81;6073428;28;20400;-65
2023/10/07 12:54:19;;;;;;;12.00;6.55;;;;;;;18.42;100.00;101068.22;6073329;28;20041;-65
2023/10/07 12:57:15;;;;;;;12.38;6.15;;;;;;;18.48;100.00;101079.28;6073500;28;20033;-66
2023/10/07 13:00:28;;;;;;;10.60;6.15;;;;;;;18.44;100.00;101066.19;6073003;28;20030;-65
2023/10/07 13:03:24;;;;;;;;;;;;;;;18.67;100.00;101087.53;6074041;28;20030;-66
2023/10/07 13:06:19;;;;;;;10.05;5.80;;;;;;;18.72;100.00;101069.03;6073007;28;19913;-65
2023/10/07 13:09:18;;;;;;;10.70;6.43;;;;;;;18.87;100.00;101087.75;6072624;28;20021;-65
2023/10/07 13:12:15;;;;;;;11.60;6.45;;;;;;;18.93;100.00;101066.34;6072403;28;20412;-65
2023/10/07 13:15:18;;;;;;;12.07;6.00;;;;;;;19.17;100.00;101067.81;6073143;28;20049;-65
2023/10/07 13:18:13;;;;;;;8.73;5.18;;;;;;;19.31;100.00;101063.38;6072204;28;20040;-65
2023/10/07 13:21:18;;;;;;;10.10;5.50;;;;;;;19.53;100.00;101070.41;6072913;28;20366;-65
2023/10/07 13:24:14;;;;;;;10.00;4.90;;;;;;;19.55;100.00;101076.41;6072999;28;20397;-66
2023/10/07 13:27:10;;;;;;;10.27;5.22;;;;;;;19.46;100.00;101072.19;6072377;28;20038;-65
2023/10/07 13:30:12;;;;;;;9.60;4.47;;;;;;;19.53;100.00;101073.09;6072604;28;20560;-65
2023/10/07 13:33:08;;;;;;;9.93;4.53;;;;;;;19.67;100.00;101074.03;6072399;28;20030;-65
2023/10/07 13:36:04;;;;;;;12.02;4.50;;;;;;;19.63;100.00;101060.13;6071582;28;20045;-65
2023/10/07 13:39:02;;;;;;;11.68;4.20;;;;;;;19.74;100.00;101064.13;6071988;28;20061;-65
2023/10/07 13:42:04;;;;;;;7.15;3.90;;;;;;;19.54;100.00;101064.81;6072560;28;20404;-65
2023/10/07 13:45:08;;;;;;;11.13;4.80;;;;;;;19.47;100.00;101065.81;6068563;28;20117;-65
2023/10/07 13:48:07;;;;;;;11.10;3.92;;;;;;;19.36;100.00;101063.63;6078405;28;20029;-65
2023/10/07 13:51:05;;;;;;;10.63;3.97;;;;;;;19.39;100.00;101065.94;6073690;28;20490;-65
2023/10/07 13:57:22;;;;;;;9.10;4.32;;;;;;;19.50;100.00;101041.22;6073556;28;20033;-66
2023/10/07 14:03:45;;;;;;;8.00;3.28;;;;;;;19.94;100.00;101044.41;6061574;28;20088;-66
2023/10/07 14:06:43;;;;;;;7.93;3.43;;;;;;;19.99;100.00;101049.19;6073255;28;20391;-66
2023/10/07 14:09:38;;;;;;;7.88;3.80;;;;;;;19.96;100.00;101030.72;6072986;28;20056;-65
2023/10/07 14:12:34;;;;;;;9.17;3.50;;;;;;;19.97;100.00;101010.88;6073087;28;20035;-66
2023/10/07 14:15:35;;;;;;;8.93;3.10;;;;;;;20.09;100.00;101026.25;6072619;28;20048;-65
2023/10/07 14:18:30;;;;;;;15.40;3.40;;;;;;;20.26;100.00;101021.38;6071989;28;20387;-66
2023/10/07 14:21:26;;;;;;;8.40;3.25;;;;;;;20.16;100.00;101005.53;6071954;28;20033;-65